createdAt,value
2022-08-22T00:02:19.452Z,99007.91
2022-08-22T00:02:48.679Z,98992.00
2022-08-22T00:02:49.335Z,99022.59
2022-08-22T00:03:00.353Z,99031.19
2022-08-22T00:03:16.332Z,99014.38
2022-08-22T00:04:58.412Z,99009.75
2022-08-22T00:07:33.619Z,99002.72
2022-08-22T00:10:24.977Z,98999.97
2022-08-22T00:13:18.446Z,98999.09
2022-08-22T00:15:54.763Z,99005.00
2022-08-22T00:18:31.718Z,99002.47
2022-08-22T00:21:01.358Z,99007.25
2022-08-22T00:23:28.860Z,99005.41
2022-08-22T00:26:06.191Z,98994.09
2022-08-22T00:29:01.431Z,99010.34
2022-08-22T00:31:39.886Z,99013.00
2022-08-22T00:34:24.467Z,99012.00
2022-08-22T00:37:07.127Z,99007.53
2022-08-22T00:39:41.119Z,99020.81
2022-08-22T00:42:32.376Z,99027.13
2022-08-22T00:45:20.186Z,99015.09
2022-08-22T00:48:14.351Z,99028.94
2022-08-22T00:51:13.096Z,99032.31
2022-08-22T00:54:17.433Z,99032.88
2022-08-22T00:56:45.198Z,99036.75
2022-08-22T00:59:47.981Z,99036.50
2022-08-22T01:02:21.699Z,99025.84
2022-08-22T01:05:03.348Z,99019.03
2022-08-22T01:07:43.250Z,99020.81
2022-08-22T01:10:40.300Z,99018.88
2022-08-22T01:13:31.869Z,99019.03
2022-08-22T01:16:08.367Z,99019.56
2022-08-22T01:18:50.213Z,99014.81
2022-08-22T01:21:25.542Z,99028.78
2022-08-22T01:24:36.511Z,99025.72
2022-08-22T01:27:33.144Z,99012.44
2022-08-22T01:30:03.629Z,99022.09
2022-08-22T01:32:31.222Z,99033.69
2022-08-22T01:35:03.946Z,99030.22
2022-08-22T01:37:49.357Z,99026.69
2022-08-22T01:40:16.020Z,99017.06
2022-08-22T01:43:04.570Z,99014.41
2022-08-22T01:45:43.309Z,99020.16
2022-08-22T01:48:13.220Z,99018.59
2022-08-22T01:50:46.637Z,99017.75
2022-08-22T01:53:24.636Z,99015.78
2022-08-22T01:55:54.230Z,99020.28
2022-08-22T01:58:29.913Z,99011.50
2022-08-22T02:01:17.815Z,99019.88
2022-08-22T02:04:01.524Z,99014.28
2022-08-22T02:06:33.882Z,99029.50
2022-08-22T02:09:27.545Z,99028.53
2022-08-22T02:12:21.829Z,99019.00
2022-08-22T02:15:14.770Z,99027.41
2022-08-22T02:18:01.056Z,99026.56
2022-08-22T02:20:48.159Z,99023.91
2022-08-22T02:23:52.365Z,99043.59
2022-08-22T02:26:44.250Z,99038.00
2022-08-22T02:29:14.795Z,99042.75
2022-08-22T02:31:48.177Z,99032.81
2022-08-22T02:34:32.323Z,99039.97
2022-08-22T02:37:22.266Z,99047.38
2022-08-22T02:40:13.134Z,99052.78
2022-08-22T02:42:50.715Z,99060.47
2022-08-22T02:45:41.692Z,99050.97
2022-08-22T02:48:39.392Z,99051.94
2022-08-22T02:51:30.113Z,99051.63
2022-08-22T02:54:08.978Z,99045.78
2022-08-22T02:56:41.199Z,99047.19
2022-08-22T02:59:16.847Z,99046.06
2022-08-22T03:01:46.281Z,99039.22
2022-08-22T03:04:33.439Z,99047.72
2022-08-22T03:07:21.189Z,99051.34
2022-08-22T03:09:56.762Z,99039.03
2022-08-22T03:12:52.754Z,99041.44
2022-08-22T03:15:34.591Z,99037.41
2022-08-22T03:18:07.277Z,99041.03
2022-08-22T03:20:46.043Z,99044.97
2022-08-22T03:23:36.951Z,99041.78
2022-08-22T03:26:20.603Z,99036.63
2022-08-22T03:29:03.549Z,99037.59
2022-08-22T03:31:31.406Z,99035.53
2022-08-22T03:34:26.622Z,99031.44
2022-08-22T03:37:18.750Z,99042.34
2022-08-22T03:39:51.420Z,99034.53
2022-08-22T03:42:22.333Z,99042.97
2022-08-22T03:45:21.466Z,99034.41
2022-08-22T03:47:57.988Z,99048.53
2022-08-22T03:50:24.672Z,99052.88
2022-08-22T03:53:19.013Z,99054.06
2022-08-22T03:56:14.046Z,99053.31
2022-08-22T04:02:55.888Z,99068.88
2022-08-22T04:05:34.718Z,99066.63
2022-08-22T04:08:23.060Z,99061.97
2022-08-22T04:11:12.251Z,99061.00
2022-08-22T04:13:41.769Z,99066.59
2022-08-22T04:16:11.314Z,99067.09
2022-08-22T04:18:56.385Z,99058.66
2022-08-22T04:22:00.971Z,99074.19
2022-08-22T04:25:15.215Z,99073.91
2022-08-22T04:27:49.710Z,99074.28
2022-08-22T04:30:16.298Z,99079.59
2022-08-22T04:32:56.963Z,99066.44
2022-08-22T04:35:46.519Z,99082.03
2022-08-22T04:38:40.268Z,99081.22
2022-08-22T04:41:17.275Z,99082.53
2022-08-22T04:43:52.887Z,99072.88
2022-08-22T04:46:42.273Z,99072.34
2022-08-22T04:49:32.220Z,99072.22
2022-08-22T04:52:35.745Z,99080.16
2022-08-22T04:55:19.654Z,99081.19
2022-08-22T04:58:06.562Z,99088.78
2022-08-22T05:00:52.495Z,99083.44
2022-08-22T05:03:21.901Z,99083.06
2022-08-22T05:05:49.751Z,99067.88
2022-08-22T05:08:21.670Z,99086.47
2022-08-22T05:10:49.654Z,99073.28
2022-08-22T05:13:18.829Z,99071.19
2022-08-22T05:15:51.275Z,99088.81
2022-08-22T05:18:29.652Z,99089.69
2022-08-22T05:20:59.569Z,99096.31
2022-08-22T05:23:44.534Z,99105.50
2022-08-22T05:26:12.549Z,99103.75
2022-08-22T05:28:40.742Z,99101.44
2022-08-22T05:31:11.874Z,99102.91
2022-08-22T05:33:46.426Z,99109.06
2022-08-22T05:36:20.585Z,99099.69
2022-08-22T05:38:56.438Z,99097.28
2022-08-22T05:41:31.873Z,99109.88
2022-08-22T05:43:58.943Z,99110.66
2022-08-22T05:46:41.034Z,99105.19
2022-08-22T05:49:22.962Z,99097.19
2022-08-22T05:52:15.929Z,99111.88
2022-08-22T05:54:59.926Z,99117.72
2022-08-22T05:57:33.330Z,99118.09
2022-08-22T06:00:11.067Z,99115.34
2022-08-22T06:03:04.302Z,99112.59
2022-08-22T06:05:33.480Z,99048.13
2022-08-22T06:08:07.820Z,99106.22
2022-08-22T06:10:55.076Z,99111.56
2022-08-22T06:13:30.230Z,99107.44
2022-08-22T06:16:12.097Z,99116.97
2022-08-22T06:18:40.599Z,99104.06
2022-08-22T06:21:11.587Z,99104.72
2022-08-22T06:23:51.960Z,99110.38
2022-08-22T06:26:20.184Z,99110.53
2022-08-22T06:28:55.443Z,99091.44
2022-08-22T06:31:45.353Z,99112.19
2022-08-22T06:34:18.529Z,99103.44
2022-08-22T06:36:49.111Z,99091.34
2022-08-22T06:39:24.969Z,99102.78
2022-08-22T06:42:28.327Z,99109.31
2022-08-22T06:45:04.405Z,99105.91
2022-08-22T06:47:37.385Z,99104.44
2022-08-22T06:50:13.609Z,99095.75
2022-08-22T06:52:52.285Z,99104.72
2022-08-22T06:55:19.376Z,99101.13
2022-08-22T06:57:57.104Z,99101.91
2022-08-22T07:00:24.604Z,99100.59
2022-08-22T07:03:09.752Z,99092.66
2022-08-22T07:05:37.514Z,99097.88
2022-08-22T07:08:12.100Z,99090.00
2022-08-22T07:10:43.561Z,99092.66
2022-08-22T07:13:15.618Z,99101.56
2022-08-22T07:15:43.122Z,99101.56
2022-08-22T07:18:18.487Z,99102.81
2022-08-22T07:20:50.326Z,99097.69
2022-08-22T07:23:36.688Z,99097.53
2022-08-22T07:26:17.354Z,99083.66
2022-08-22T07:29:32.594Z,99085.34
2022-08-22T07:32:09.735Z,99083.50
2022-08-22T07:34:53.525Z,99070.13
2022-08-22T07:37:29.391Z,99090.03
2022-08-22T07:39:58.445Z,99088.13
2022-08-22T07:42:35.978Z,99090.03
2022-08-22T07:45:05.329Z,99088.19
2022-08-22T07:48:04.207Z,99088.69
2022-08-22T07:50:33.951Z,99083.13
2022-08-22T07:53:08.980Z,99088.66
2022-08-22T07:55:41.099Z,99085.28
2022-08-22T07:58:17.052Z,99087.03
2022-08-22T08:00:45.153Z,99078.31
2022-08-22T08:03:12.355Z,99084.19
2022-08-22T08:05:41.785Z,99087.84
2022-08-22T08:08:30.997Z,99076.50
2022-08-22T08:10:59.991Z,99062.91
2022-08-22T08:13:31.398Z,99077.50
2022-08-22T08:15:59.071Z,99062.75
2022-08-22T08:18:28.040Z,99068.13
2022-08-22T08:21:00.408Z,99083.59
2022-08-22T08:23:29.840Z,99081.06
2022-08-22T08:26:03.967Z,99079.38
2022-08-22T08:28:38.050Z,99065.03
2022-08-22T08:31:31.981Z,99080.44
2022-08-22T08:34:04.015Z,99080.91
2022-08-22T08:37:01.474Z,99071.53
2022-08-22T08:39:38.550Z,99085.69
2022-08-22T08:42:05.128Z,99076.31
2022-08-22T08:44:43.680Z,99090.41
2022-08-22T08:47:28.375Z,99080.69
2022-08-22T08:50:32.909Z,99083.41
2022-08-22T08:53:03.423Z,99078.00
2022-08-22T08:56:19.594Z,99083.28
2022-08-22T08:59:44.053Z,99072.34
2022-08-22T09:02:23.645Z,99067.44
2022-08-22T09:05:27.675Z,99068.84
2022-08-22T09:08:13.755Z,99083.94
2022-08-22T09:11:15.747Z,99078.19
2022-08-22T09:14:15.147Z,99076.25
2022-08-22T09:16:51.572Z,99065.66
2022-08-22T09:19:55.825Z,99071.91
2022-08-22T09:23:04.146Z,99069.66
2022-08-22T09:26:08.816Z,99067.75
2022-08-22T09:28:40.922Z,99059.16
2022-08-22T09:31:33.087Z,99059.63
2022-08-22T09:34:37.981Z,99055.50
2022-08-22T09:37:14.087Z,99059.19
2022-08-22T09:40:08.209Z,99048.16
2022-08-22T09:42:50.111Z,99042.22
2022-08-22T09:45:25.740Z,99052.78
2022-08-22T09:48:21.712Z,99040.19
2022-08-22T09:51:08.286Z,99046.69
2022-08-22T09:54:18.895Z,99048.72
2022-08-22T09:57:03.962Z,99052.53
2022-08-22T09:59:31.683Z,99045.28
2022-08-22T10:02:25.659Z,99034.50
2022-08-22T10:05:07.901Z,99044.09
2022-08-22T10:07:51.530Z,99048.78
2022-08-22T10:10:22.228Z,99049.84
2022-08-22T10:13:11.856Z,99061.31
2022-08-22T10:16:19.396Z,99053.16
2022-08-22T10:19:07.115Z,99043.78
2022-08-22T10:21:43.707Z,99053.97
2022-08-22T10:24:43.778Z,99060.25
2022-08-22T10:27:18.282Z,99025.34
2022-08-22T10:30:17.880Z,99061.63
2022-08-22T10:32:44.755Z,99061.56
2022-08-22T10:35:28.224Z,99059.25
2022-08-22T10:38:10.789Z,99048.59
2022-08-22T10:40:44.095Z,99061.38
2022-08-22T10:43:46.098Z,99063.16
2022-08-22T10:46:16.177Z,99036.25
2022-08-22T10:48:46.552Z,99066.66
2022-08-22T10:51:22.879Z,99057.84
2022-08-22T10:53:55.906Z,99077.47
2022-08-22T10:56:32.199Z,99071.28
2022-08-22T10:59:17.591Z,99064.91
2022-08-22T11:02:31.920Z,99068.94
2022-08-22T11:05:13.956Z,99065.91
2022-08-22T11:07:57.916Z,99059.28
2022-08-22T11:10:28.140Z,99059.84
2022-08-22T11:13:16.116Z,99068.78
2022-08-22T11:16:11.561Z,99057.81
2022-08-22T11:19:04.959Z,99058.00
2022-08-22T11:22:29.353Z,99057.91
2022-08-22T11:25:15.762Z,99061.22
2022-08-22T11:28:16.407Z,99062.72
2022-08-22T11:30:58.099Z,99055.88
2022-08-22T11:33:46.467Z,99050.47
2022-08-22T11:36:17.421Z,99060.16
2022-08-22T11:38:54.196Z,99057.66
2022-08-22T11:41:35.797Z,99033.50
2022-08-22T11:44:09.043Z,99060.78
2022-08-22T11:46:41.345Z,99062.22
2022-08-22T11:49:32.623Z,99062.56
2022-08-22T11:52:18.662Z,99053.00
2022-08-22T11:55:13.246Z,99058.16
2022-08-22T11:57:51.421Z,99060.03
2022-08-22T12:00:25.083Z,99054.25
2022-08-22T12:03:23.691Z,99059.75
2022-08-22T12:06:08.581Z,99056.00
2022-08-22T12:08:40.872Z,99064.31
2022-08-22T12:11:11.806Z,99053.31
2022-08-22T12:13:45.949Z,99069.34
2022-08-22T12:16:27.386Z,99046.00
2022-08-22T12:18:55.453Z,99051.63
2022-08-22T12:21:25.067Z,99048.25
2022-08-22T12:24:35.655Z,99048.03
2022-08-22T12:27:28.735Z,99051.78
2022-08-22T12:30:33.191Z,99044.28
2022-08-22T12:33:21.910Z,99050.59
2022-08-22T12:36:17.862Z,99046.97
2022-08-22T12:39:00.140Z,99053.28
2022-08-22T12:41:37.510Z,99050.53
2022-08-22T12:44:18.233Z,99051.91
2022-08-22T12:47:04.338Z,99021.78
2022-08-22T12:50:04.890Z,99049.69
2022-08-22T12:52:34.464Z,99039.50
2022-08-22T12:55:29.228Z,99043.34
2022-08-22T12:58:02.154Z,99049.59
2022-08-22T13:00:41.793Z,99048.34
2022-08-22T13:03:12.054Z,99034.69
2022-08-22T13:05:40.976Z,99044.28
2022-08-22T13:08:12.712Z,99046.34
2022-08-22T13:10:44.785Z,99054.69
2022-08-22T13:13:16.643Z,99047.16
2022-08-22T13:16:01.708Z,99040.16
2022-08-22T13:18:39.715Z,99032.25
2022-08-22T13:21:15.376Z,99043.72
2022-08-22T13:23:45.697Z,99050.97
2022-08-22T13:26:33.604Z,99052.38
2022-08-22T13:29:39.607Z,99033.97
2022-08-22T13:32:04.527Z,99047.50
2022-08-22T13:34:44.381Z,99056.56
2022-08-22T13:37:17.009Z,99052.38
2022-08-22T13:39:46.650Z,99052.38
2022-08-22T13:42:30.905Z,99057.47
2022-08-22T13:45:02.291Z,99059.03
2022-08-22T13:47:32.434Z,99053.25
2022-08-22T13:50:10.300Z,99063.19
2022-08-22T13:52:42.695Z,99054.97
2022-08-22T13:55:32.601Z,99063.19
2022-08-22T13:58:28.619Z,99068.69
2022-08-22T14:01:04.584Z,99062.81
2022-08-22T14:04:17.523Z,99064.16
2022-08-22T14:07:11.787Z,99062.19
2022-08-22T14:09:54.530Z,99066.28
2022-08-22T14:12:33.749Z,99066.19
2022-08-22T14:15:23.367Z,99074.16
2022-08-22T14:17:54.973Z,99066.13
2022-08-22T14:20:32.265Z,99059.88
2022-08-22T14:23:04.628Z,99068.53
2022-08-22T14:25:36.106Z,99065.78
2022-08-22T14:28:09.044Z,99072.03
2022-08-22T14:30:54.326Z,99072.91
2022-08-22T14:33:28.762Z,99071.03
2022-08-22T14:35:57.804Z,99078.91
2022-08-22T14:38:30.269Z,99072.91
2022-08-22T14:41:25.067Z,99066.94
2022-08-22T14:44:04.982Z,99082.75
2022-08-22T14:47:03.835Z,99080.06
2022-08-22T14:49:35.922Z,99084.63
2022-08-22T14:52:19.599Z,99072.47
2022-08-22T14:54:46.812Z,99080.88
2022-08-22T14:57:19.825Z,99065.72
2022-08-22T14:59:50.290Z,99074.81
2022-08-22T15:02:30.224Z,99075.19
2022-08-22T15:05:01.609Z,99069.47
2022-08-22T15:07:32.098Z,99068.31
2022-08-22T15:10:03.099Z,99085.53
2022-08-22T15:12:40.743Z,99072.38
2022-08-22T15:15:26.732Z,99086.19
2022-08-22T15:17:53.370Z,99066.25
2022-08-22T15:20:38.212Z,99067.53
2022-08-22T15:23:19.378Z,99074.31
2022-08-22T15:25:57.930Z,99059.16
2022-08-22T15:28:24.933Z,99073.47
2022-08-22T15:30:54.073Z,99074.69
2022-08-22T15:33:29.401Z,99080.22
2022-08-22T15:36:08.531Z,99067.69
2022-08-22T15:38:39.435Z,99068.41
2022-08-22T15:41:36.795Z,99082.69
2022-08-22T15:44:14.818Z,99083.75
2022-08-22T15:47:00.463Z,99077.69
2022-08-22T15:49:32.544Z,99085.47
2022-08-22T15:52:00.900Z,99081.94
2022-08-22T15:54:30.591Z,99095.09
2022-08-22T15:57:10.152Z,99093.53
2022-08-22T15:59:54.425Z,99098.63
2022-08-22T16:02:30.519Z,99098.63
2022-08-22T16:05:03.929Z,99101.97
2022-08-22T16:07:43.806Z,99075.41
2022-08-22T16:10:27.489Z,99096.22
2022-08-22T16:13:13.181Z,99102.31
2022-08-22T16:15:54.112Z,99101.84
2022-08-22T16:18:39.231Z,99107.03
2022-08-22T16:21:10.987Z,99112.19
2022-08-22T16:23:49.837Z,99114.09
2022-08-22T16:26:18.469Z,99103.41
2022-08-22T16:28:58.308Z,99113.00
2022-08-22T16:31:38.874Z,99106.53
2022-08-22T16:34:20.582Z,99107.44
2022-08-22T16:37:18.114Z,99114.91
2022-08-22T16:40:04.640Z,99115.06
2022-08-22T16:42:35.308Z,99099.47
2022-08-22T16:45:18.302Z,99124.25
2022-08-22T16:48:02.140Z,99122.94
2022-08-22T16:50:33.759Z,99110.41
2022-08-22T16:53:13.854Z,99129.97
2022-08-22T16:56:05.460Z,99127.34
2022-08-22T16:59:19.754Z,99128.50
2022-08-22T17:01:59.353Z,99131.72
2022-08-22T17:04:38.070Z,99133.44
2022-08-22T17:07:14.382Z,99137.28
2022-08-22T17:09:49.309Z,99144.56
2022-08-22T17:12:15.808Z,99141.53
2022-08-22T17:15:00.955Z,99141.19
2022-08-22T17:17:30.533Z,99140.22
2022-08-22T17:20:24.716Z,99140.72
2022-08-22T17:23:20.909Z,99140.59
2022-08-22T17:26:19.626Z,99148.44
2022-08-22T17:29:21.050Z,99122.53
2022-08-22T17:31:58.274Z,99156.84
2022-08-22T17:34:43.063Z,99117.34
2022-08-22T17:37:44.846Z,99151.81
2022-08-22T17:40:35.079Z,99154.19
2022-08-22T17:43:13.595Z,99144.97
2022-08-22T17:45:44.897Z,99164.56
2022-08-22T17:48:34.119Z,99162.22
2022-08-22T17:51:32.147Z,99168.91
2022-08-22T17:54:12.711Z,99159.72
2022-08-22T17:57:00.460Z,99167.59
2022-08-22T17:59:47.366Z,99169.59
2022-08-22T18:02:28.635Z,99170.25
2022-08-22T18:05:16.298Z,99143.84
2022-08-22T18:07:58.812Z,99067.78
2022-08-22T18:10:50.023Z,99161.91
2022-08-22T18:13:42.501Z,99158.25
2022-08-22T18:16:29.533Z,99131.81
2022-08-22T18:19:28.669Z,99160.75
2022-08-22T18:22:02.349Z,99166.63
2022-08-22T18:24:36.215Z,99062.94
2022-08-22T18:27:35.335Z,99165.94
2022-08-22T18:30:29.770Z,99091.34
2022-08-22T18:33:04.321Z,99165.59
2022-08-22T18:35:50.008Z,99165.59
2022-08-22T18:38:38.736Z,99159.94
2022-08-22T18:41:15.534Z,99156.06
2022-08-22T18:43:45.251Z,99160.59
2022-08-22T18:46:46.863Z,99154.09
2022-08-22T18:49:22.141Z,99164.09
2022-08-22T18:52:16.922Z,99164.78
2022-08-22T18:55:01.858Z,99151.56
2022-08-22T18:57:47.181Z,99153.56
2022-08-22T19:00:22.512Z,99148.72
2022-08-22T19:03:03.516Z,99150.56
2022-08-22T19:06:01.199Z,99155.25
2022-08-22T19:08:42.292Z,99164.94
2022-08-22T19:11:23.113Z,99162.91
2022-08-22T19:14:08.130Z,99158.72
2022-08-22T19:16:43.562Z,99157.41
2022-08-22T19:19:58.045Z,99160.91
2022-08-22T19:22:33.749Z,99154.72
2022-08-22T19:25:15.318Z,99159.25
2022-08-22T19:28:02.647Z,99155.19
2022-08-22T19:30:50.105Z,99156.03
2022-08-22T19:33:19.648Z,99154.19
2022-08-22T19:35:54.319Z,99160.38
2022-08-22T19:38:43.001Z,99165.91
2022-08-22T19:41:09.565Z,99162.69
2022-08-22T19:43:38.355Z,99165.03
2022-08-22T19:46:08.851Z,99157.50
2022-08-22T19:48:53.754Z,99136.97
2022-08-22T19:51:20.410Z,99156.19
2022-08-22T19:53:58.769Z,99162.03
2022-08-22T19:56:43.629Z,99152.53
2022-08-22T19:59:28.518Z,99159.38
2022-08-22T20:02:18.378Z,99161.88
2022-08-22T20:05:02.103Z,99164.03
2022-08-22T20:07:41.958Z,99161.84
2022-08-22T20:10:18.692Z,99148.13
2022-08-22T20:13:01.273Z,99152.47
2022-08-22T20:15:30.482Z,99153.16
2022-08-22T20:18:47.241Z,99151.66
2022-08-22T20:20:59.816Z,99150.34
2022-08-22T20:23:30.962Z,99153.81
2022-08-22T20:26:02.613Z,99156.50
2022-08-22T20:28:39.275Z,99154.63
2022-08-22T20:31:22.606Z,99154.63
2022-08-22T20:34:02.698Z,99155.94
2022-08-22T20:36:36.326Z,99147.56
2022-08-22T20:39:20.695Z,99170.31
2022-08-22T20:41:55.180Z,99037.63
2022-08-22T20:44:31.574Z,99164.16
2022-08-22T20:47:07.728Z,99167.31
2022-08-22T20:49:51.367Z,99166.44
2022-08-22T20:52:43.699Z,99175.63
2022-08-22T20:55:35.834Z,99120.78
2022-08-22T20:58:31.596Z,99173.84
2022-08-22T21:01:01.655Z,99148.41
2022-08-22T21:03:46.536Z,99087.09
2022-08-22T21:06:20.071Z,99067.22
2022-08-22T21:09:08.067Z,99172.66
2022-08-22T21:11:40.285Z,99157.13
2022-08-22T21:14:21.455Z,99180.38
2022-08-22T21:16:48.264Z,99167.75
2022-08-22T21:19:27.367Z,99176.63
2022-08-22T21:21:54.411Z,99161.41
2022-08-22T21:24:21.042Z,99170.59
2022-08-22T21:26:59.125Z,99175.44
2022-08-22T21:29:32.955Z,99178.25
2022-08-22T21:32:11.546Z,99170.41
2022-08-22T21:34:44.156Z,99182.41
2022-08-22T21:37:23.914Z,99174.59
2022-08-22T21:39:57.439Z,99173.78
2022-08-22T21:42:33.332Z,99151.91
2022-08-22T21:45:12.574Z,99166.63
2022-08-22T21:47:41.560Z,99163.44
2022-08-22T21:50:26.590Z,99158.19
2022-08-22T21:52:56.373Z,99161.38
2022-08-22T21:55:32.780Z,99167.06
2022-08-22T21:58:34.915Z,99162.56
2022-08-22T22:01:24.895Z,99160.88
2022-08-22T22:03:51.704Z,99159.38
2022-08-22T22:06:18.305Z,99156.03
2022-08-22T22:08:44.902Z,99147.94
2022-08-22T22:11:13.562Z,99149.94
2022-08-22T22:13:40.709Z,99157.41
2022-08-22T22:16:08.583Z,99146.88
2022-08-22T22:18:36.081Z,99151.22
2022-08-22T22:21:02.981Z,99140.63
2022-08-22T22:23:29.596Z,99147.44
2022-08-22T22:25:58.313Z,99142.94
2022-08-22T22:28:29.782Z,99154.78
2022-08-22T22:30:56.431Z,99142.19
2022-08-22T22:33:28.599Z,99137.75
2022-08-22T22:35:57.821Z,99142.13
2022-08-22T22:38:25.443Z,99150.31
2022-08-22T22:40:52.714Z,99155.00
2022-08-22T22:43:19.370Z,99129.63
2022-08-22T22:45:45.976Z,99132.50
2022-08-22T22:48:18.129Z,99149.06
2022-08-22T22:50:54.993Z,99146.50
2022-08-22T22:53:33.844Z,99149.59
2022-08-22T22:56:07.406Z,99146.31
2022-08-22T22:58:36.546Z,99150.19
2022-08-22T23:01:09.518Z,99159.19
2022-08-22T23:03:36.229Z,99152.81
2022-08-22T23:06:02.948Z,99143.50
2022-08-22T23:08:29.577Z,99159.63
2022-08-22T23:10:56.255Z,99147.94
2022-08-22T23:13:22.882Z,99141.72
2022-08-22T23:15:49.459Z,99149.59
2022-08-22T23:18:16.149Z,99148.38
2022-08-22T23:20:42.733Z,99145.34
2022-08-22T23:23:09.399Z,99147.72
2022-08-22T23:25:36.060Z,99146.03
2022-08-22T23:28:03.017Z,99151.22
2022-08-22T23:30:30.323Z,99143.31
2022-08-22T23:32:57.074Z,99162.66
2022-08-22T23:35:23.681Z,99163.66
2022-08-22T23:37:50.272Z,99155.25
2022-08-22T23:40:17.051Z,99160.13
2022-08-22T23:42:43.790Z,99153.97
2022-08-22T23:45:10.524Z,99148.56
2022-08-22T23:47:37.087Z,99146.34
2022-08-22T23:50:06.000Z,99149.25
2022-08-22T23:52:33.357Z,99143.31
2022-08-22T23:54:59.977Z,99146.56
2022-08-22T23:57:27.781Z,99139.50
2022-08-22T23:59:57.868Z,99142.16
